Time;durP1;ratioP1;P1;durP2;ratioP2;P2;SDS_P1;SDS_P2;PMS_P1;PMS_P2;Temp;Humidity;BMP_temperature;BMP_pressure;BME280_temperature;BME280_humidity;BME280_pressure;Samples;Min_cycle;Max_cycle;Signal;HPM_P1;HPM_P2
2022/03/05 00:00:45;;;;;;;1999.90;999.90;;;;;;;2.61;100.00;163094.34;5063927;28;20037;-68
2022/03/05 00:03:13;;;;;;;1999.90;999.90;;;;;;;2.72;99.78;163121.75;5064871;28;20049;-68
2022/03/05 00:05:40;;;;;;;1999.90;999.90;;;;;;;3.07;99.03;163214.94;5063992;28;20275;-68
2022/03/05 00:08:07;;;;;;;1999.90;999.90;;;;;;;3.05;98.30;163209.44;5061040;28;20048;-68
2022/03/05 00:10:35;;;;;;;1999.90;999.90;;;;;;;2.92;99.01;163176.56;5067262;28;20040;-68
2022/03/05 00:13:02;;;;;;;1999.90;999.90;;;;;;;2.81;98.65;163147.81;5064582;28;20059;-67
2022/03/05 00:15:28;;;;;;;1999.90;999.90;;;;;;;2.57;100.00;163082.03;5060963;28;20048;-67
2022/03/05 00:17:56;;;;;;;1999.90;999.90;;;;;;;2.43;100.00;163046.41;5063478;28;20101;-67
2022/03/05 00:20:23;;;;;;;1999.90;999.90;;;;;;;2.72;100.00;163121.75;5061469;28;20200;-68
2022/03/05 00:22:52;;;;;;;1999.90;999.90;;;;;;;2.66;100.00;163105.34;5066334;28;20044;-68
2022/03/05 00:25:20;;;;;;;1999.90;999.90;;;;;;;2.54;100.00;163075.16;5064813;28;20357;-68
2022/03/05 00:27:47;;;;;;;1999.90;999.90;;;;;;;2.96;99.84;163187.53;5062361;28;20056;-68
2022/03/05 00:30:14;;;;;;;1999.90;999.90;;;;;;;3.31;97.77;163279.34;5061884;28;20361;-68
2022/03/05 00:32:41;;;;;;;1999.90;999.90;;;;;;;3.25;97.42;163262.91;5064312;28;20043;-68
2022/03/05 00:35:08;;;;;;;1999.90;999.90;;;;;;;3.13;98.38;163232.72;5062261;28;20053;-68
2022/03/05 00:37:35;;;;;;;1999.90;999.90;;;;;;;2.86;99.50;163160.13;5059066;28;20102;-68
2022/03/05 00:40:02;;;;;;;1999.90;999.90;;;;;;;2.95;98.84;163183.44;5055180;28;20055;-68
2022/03/05 00:42:29;;;;;;;1999.90;999.90;;;;;;;2.84;99.35;163153.28;5059662;28;20045;-68
2022/03/05 00:44:56;;;;;;;1999.90;999.90;;;;;;;2.58;100.00;163086.16;5063280;28;20105;-68
2022/03/05 00:47:22;;;;;;;1999.90;999.90;;;;;;;2.89;100.00;163168.34;5065855;28;20084;-68
2022/03/05 00:49:49;;;;;;;1999.90;999.90;;;;;;;2.77;99.93;163136.84;5057075;28;20359;-68
2022/03/05 00:52:16;;;;;;;1999.90;999.90;;;;;;;2.71;100.00;163120.41;5064342;28;20056;-68
2022/03/05 00:54:42;;;;;;;1999.90;999.90;;;;;;;2.54;100.00;163073.81;5062168;28;20056;-68
2022/03/05 00:57:09;;;;;;;1999.90;999.90;;;;;;;2.39;100.00;163035.47;5063337;28;20156;-68
2022/03/05 00:59:36;;;;;;;1999.90;999.90;;;;;;;2.49;100.00;163060.09;5049034;28;20059;-68
2022/03/05 01:02:02;;;;;;;1999.90;999.90;;;;;;;2.50;100.00;163062.84;5062936;28;20045;-68
2022/03/05 01:04:29;;;;;;;1999.90;999.90;;;;;;;2.64;100.00;163101.22;5053582;28;20071;-68
2022/03/05 01:06:56;;;;;;;1999.90;999.90;;;;;;;2.65;100.00;163103.97;5054212;28;20057;-68
2022/03/05 01:09:22;;;;;;;1999.90;999.90;;;;;;;2.90;99.90;163169.69;5055734;28;20051;-68
2022/03/05 01:11:49;;;;;;;1999.90;999.90;;;;;;;3.03;99.77;163203.97;5060087;28;20056;-68
2022/03/05 01:14:15;;;;;;;1999.90;999.90;;;;;;;3.01;98.95;163199.88;5054998;28;20063;-68
2022/03/05 01:16:42;;;;;;;1999.90;999.90;;;;;;;2.98;99.02;163193.00;5057537;28;20052;-68
2022/03/05 01:19:08;;;;;;;1999.90;999.90;;;;;;;2.31;100.00;163013.56;5061457;28;20052;-68
2022/03/05 01:21:36;;;;;;;1999.90;999.90;;;;;;;2.66;100.00;163105.34;5054626;28;20063;-68
2022/03/05 01:24:03;;;;;;;1999.90;999.90;;;;;;;2.45;100.00;163050.53;5062258;28;20364;-68
2022/03/05 01:26:30;;;;;;;1999.90;999.90;;;;;;;2.42;100.00;163043.66;5062331;28;20053;-68
2022/03/05 01:28:57;;;;;;;1999.90;999.90;;;;;;;2.62;100.00;163097.09;5059670;28;20366;-68
2022/03/05 01:31:24;;;;;;;1999.90;999.90;;;;;;;2.61;100.00;163093.00;5059702;28;20049;-68
2022/03/05 01:33:50;;;;;;;1999.90;999.90;;;;;;;2.53;100.00;163071.06;5060852;28;20318;-68
2022/03/05 01:36:17;;;;;;;1999.90;999.90;;;;;;;2.62;100.00;163097.09;5062580;28;20063;-68
2022/03/05 01:38:43;;;;;;;1999.90;999.90;;;;;;;2.62;100.00;163095.72;5062150;28;20243;-68
2022/03/05 01:41:10;;;;;;;1999.90;999.90;;;;;;;2.47;100.00;163057.38;5061210;28;20329;-68
2022/03/05 01:43:37;;;;;;;1999.90;999.90;;;;;;;2.45;100.00;163051.88;5061656;28;20056;-68
2022/03/05 01:46:03;;;;;;;1999.90;999.90;;;;;;;2.60;100.00;163091.59;5051127;28;20417;-68
2022/03/05 01:48:30;;;;;;;1999.90;999.90;;;;;;;2.31;100.00;163013.56;5060074;28;20361;-68
2022/03/05 01:50:57;;;;;;;1999.90;999.90;;;;;;;2.64;100.00;163102.56;5060328;28;20055;-68
2022/03/05 01:53:23;;;;;;;1999.90;999.90;;;;;;;2.66;100.00;163105.34;5052843;28;20393;-68
2022/03/05 01:55:50;;;;;;;1999.90;999.90;;;;;;;2.34;100.00;163021.78;5054026;28;20044;-68
2022/03/05 01:58:17;;;;;;;1999.90;999.90;;;;;;;2.79;100.00;163140.94;5059330;28;20048;-68
2022/03/05 02:00:43;;;;;;;1999.90;999.90;;;;;;;3.09;99.45;163221.75;5054402;28;20052;-68
2022/03/05 02:03:10;;;;;;;1999.90;999.90;;;;;;;2.77;100.00;163136.84;5064753;28;20357;-68
2022/03/05 02:05:37;;;;;;;1999.90;999.90;;;;;;;2.73;100.00;163125.88;5060693;28;20045;-68
2022/03/05 02:08:05;;;;;;;1999.90;999.90;;;;;;;2.61;100.00;163093.00;5058125;28;20051;-68
2022/03/05 02:10:32;;;;;;;1999.90;999.90;;;;;;;2.60;100.00;163090.25;5055152;28;20041;-68
2022/03/05 02:12:58;;;;;;;1999.90;999.90;;;;;;;2.99;99.92;163194.34;5051308;28;20075;-68
2022/03/05 02:15:25;;;;;;;1999.90;999.90;;;;;;;2.90;100.00;163169.69;5060751;28;20052;-68
2022/03/05 02:17:52;;;;;;;1999.90;999.90;;;;;;;2.88;100.00;163164.25;5059660;28;20393;-68
2022/03/05 02:20:18;;;;;;;1999.90;999.90;;;;;;;2.92;99.54;163175.22;5060468;28;20063;-68
2022/03/05 02:22:45;;;;;;;1999.90;999.90;;;;;;;2.63;100.00;163099.88;5054783;28;20055;-68
2022/03/05 02:25:12;;;;;;;1999.90;999.90;;;;;;;2.82;100.00;163150.50;5061096;28;20054;-68
2022/03/05 02:27:40;;;;;;;1999.90;999.90;;;;;;;2.47;100.00;163057.38;5052412;28;20060;-68
2022/03/05 02:30:08;;;;;;;1999.90;999.90;;;;;;;2.61;100.00;163093.00;5060558;28;20045;-68
2022/03/05 02:32:35;;;;;;;1999.90;999.90;;;;;;;2.32;100.00;163014.91;5061765;28;20338;-68
2022/03/05 02:35:02;;;;;;;1999.90;999.90;;;;;;;2.66;100.00;163106.69;5061174;28;20044;-68
2022/03/05 02:37:29;;;;;;;1999.90;999.90;;;;;;;2.69;100.00;163114.91;5050279;28;20048;-68
2022/03/05 02:39:56;;;;;;;1999.90;999.90;;;;;;;2.80;100.00;163143.69;5061839;28;20052;-68
2022/03/05 02:42:22;;;;;;;1999.90;999.90;;;;;;;2.93;100.00;163177.91;5049673;28;20381;-68
2022/03/05 02:44:49;;;;;;;1999.90;999.90;;;;;;;3.06;99.18;163213.53;5065517;28;20053;-68
2022/03/05 02:47:15;;;;;;;1999.90;999.90;;;;;;;2.74;100.00;163128.63;5044785;28;20079;-68
2022/03/05 02:49:42;;;;;;;1999.90;999.90;;;;;;;2.62;100.00;163095.72;5065598;28;20124;-68
2022/03/05 02:52:08;;;;;;;1999.90;999.90;;;;;;;2.81;100.00;163147.81;5058930;28;20067;-68
2022/03/05 02:54:35;;;;;;;1999.90;999.90;;;;;;;3.18;98.58;163246.41;5066283;28;20052;-68
2022/03/05 02:57:03;;;;;;;1999.90;999.90;;;;;;;2.90;98.66;163169.69;5067379;28;20087;-68
2022/03/05 02:59:29;;;;;;;1999.90;999.90;;;;;;;2.79;100.00;163142.28;5058424;28;20057;-68
2022/03/05 03:01:56;;;;;;;1999.90;999.90;;;;;;;2.78;100.00;163139.59;5058702;28;20048;-68
2022/03/05 03:04:22;;;;;;;1999.90;999.90;;;;;;;2.77;100.00;163136.84;5059425;28;20048;-68
2022/03/05 03:06:50;;;;;;;1999.90;999.90;;;;;;;2.87;99.76;163161.47;5061427;28;20059;-68
2022/03/05 03:09:17;;;;;;;1999.90;999.90;;;;;;;2.56;100.00;163080.69;5052819;28;20087;-68
2022/03/05 03:11:43;;;;;;;1999.90;999.90;;;;;;;2.36;100.00;163025.88;5059566;28;20342;-68
2022/03/05 03:14:10;;;;;;;1999.90;999.90;;;;;;;2.44;100.00;163049.19;5057092;28;20353;-68
2022/03/05 03:16:36;;;;;;;1999.90;999.90;;;;;;;2.70;100.00;163116.28;5065231;28;20135;-68
2022/03/05 03:19:03;;;;;;;1999.90;999.90;;;;;;;2.79;100.00;163140.94;5055548;28;20045;-68
2022/03/05 03:21:29;;;;;;;1999.90;999.90;;;;;;;2.69;100.00;163114.91;5056985;28;20064;-68
2022/03/05 03:23:56;;;;;;;1999.90;999.90;;;;;;;2.44;100.00;163049.19;5056737;28;20052;-68
2022/03/05 03:26:22;;;;;;;1999.90;999.90;;;;;;;2.44;100.00;163049.19;5062161;28;20060;-68
2022/03/05 03:28:49;;;;;;;1999.90;999.90;;;;;;;2.81;100.00;163147.81;5051488;28;20044;-68
2022/03/05 03:31:15;;;;;;;1999.90;999.90;;;;;;;2.36;100.00;163025.88;5053717;28;20404;-68
2022/03/05 03:33:42;;;;;;;1999.90;999.90;;;;;;;2.82;100.00;163150.50;5053945;28;20053;-67
2022/03/05 03:36:09;;;;;;;1999.90;999.90;;;;;;;2.77;100.00;163135.44;5053045;28;20055;-68
2022/03/05 03:38:35;;;;;;;1999.90;999.90;;;;;;;3.03;99.29;163203.97;5057626;28;20054;-68
2022/03/05 03:41:02;;;;;;;1999.90;999.90;;;;;;;2.71;99.39;163119.00;5053207;28;20056;-68
2022/03/05 03:43:28;;;;;;;1999.90;999.90;;;;;;;2.38;100.00;163032.75;5054577;28;20405;-68
2022/03/05 03:45:55;;;;;;;1999.90;999.90;;;;;;;2.57;100.00;163083.38;5062884;28;20095;-68
2022/03/05 03:48:21;;;;;;;1999.90;999.90;;;;;;;2.69;100.00;163114.91;5057983;28;20128;-68
2022/03/05 03:50:48;;;;;;;1999.90;999.90;;;;;;;2.97;99.47;163188.88;5059566;28;20037;-68
2022/03/05 03:53:14;;;;;;;1999.90;999.90;;;;;;;2.43;100.00;163046.41;5068689;28;20449;-68
2022/03/05 03:55:41;;;;;;;1999.90;999.90;;;;;;;2.73;100.00;163125.88;5064181;28;20061;-68
2022/03/05 03:58:08;;;;;;;1999.90;999.90;;;;;;;2.40;100.00;163036.84;5058152;28;20044;-68
2022/03/05 04:00:34;;;;;;;1999.90;999.90;;;;;;;2.14;100.00;162967.00;5052306;28;20052;-68
2022/03/05 04:03:01;;;;;;;1999.90;999.90;;;;;;;2.27;100.00;163003.97;5049409;28;20049;-68
2022/03/05 04:05:28;;;;;;;1999.90;999.90;;;;;;;2.47;100.00;163056.00;5058639;28;20059;-69
2022/03/05 04:10:40;;;;;;;1999.90;999.90;;;;;;;2.58;100.00;163084.78;5061668;28;20048;-68
2022/03/05 04:13:07;;;;;;;1999.90;999.90;;;;;;;2.78;100.00;163139.59;5062927;28;20228;-68
2022/03/05 04:15:33;;;;;;;1999.90;999.90;;;;;;;2.51;100.00;163065.59;5060337;28;20086;-68
2022/03/05 04:18:00;;;;;;;1999.90;999.90;;;;;;;2.68;100.00;163110.78;5062676;28;20196;-68
2022/03/05 04:20:27;;;;;;;1999.90;999.90;;;;;;;2.27;100.00;163003.97;5054223;28;23498;-68
2022/03/05 04:22:53;;;;;;;1999.90;999.90;;;;;;;2.28;100.00;163005.34;5051269;28;20401;-68
2022/03/05 04:25:20;;;;;;;1999.90;999.90;;;;;;;2.68;100.00;163110.78;5063188;28;20055;-68
2022/03/05 04:27:46;;;;;;;1999.90;999.90;;;;;;;2.82;100.00;163150.50;5060305;28;20044;-69
2022/03/05 04:30:13;;;;;;;1999.90;999.90;;;;;;;3.03;99.66;163205.31;5063770;28;20044;-67
2022/03/05 04:32:39;;;;;;;1999.90;999.90;;;;;;;3.05;98.85;163209.44;5060400;28;20453;-68
2022/03/05 04:35:06;;;;;;;1999.90;999.90;;;;;;;2.97;99.56;163190.25;5067091;28;20392;-67
2022/03/05 04:37:34;;;;;;;1999.90;999.90;;;;;;;2.46;100.00;163054.63;5066398;28;20445;-67
2022/03/05 04:40:00;;;;;;;1999.90;999.90;;;;;;;2.89;100.00;163166.94;5060835;28;20068;-67
2022/03/05 04:42:27;;;;;;;1999.90;999.90;;;;;;;2.41;100.00;163040.97;5053111;28;20053;-67
2022/03/05 04:44:53;;;;;;;1999.90;999.90;;;;;;;2.31;100.00;163013.56;5051921;28;20377;-67
2022/03/05 04:47:20;;;;;;;1999.90;999.90;;;;;;;2.67;100.00;163109.44;5059936;28;20185;-67
2022/03/05 04:49:47;;;;;;;1999.90;999.90;;;;;;;2.64;100.00;163101.22;5050040;28;20052;-67
2022/03/05 04:52:14;;;;;;;1999.90;999.90;;;;;;;2.58;100.00;163084.78;5056162;28;20360;-67
2022/03/05 04:54:40;;;;;;;1999.90;999.90;;;;;;;2.66;100.00;163105.34;5060266;28;20060;-67
2022/03/05 04:57:08;;;;;;;1999.90;999.90;;;;;;;2.62;100.00;163095.72;5063891;28;20129;-67
2022/03/05 04:59:34;;;;;;;1999.90;999.90;;;;;;;2.25;100.00;162997.16;5063127;28;20068;-67
2022/03/05 05:02:01;;;;;;;1999.90;999.90;;;;;;;2.50;100.00;163064.25;5063805;28;20040;-68
2022/03/05 05:04:28;;;;;;;1999.90;999.90;;;;;;;2.32;100.00;163016.28;5057380;28;20080;-68
2022/03/05 05:06:55;;;;;;;1999.90;999.90;;;;;;;2.28;100.00;163006.72;5061128;28;20061;-67
2022/03/05 05:09:21;;;;;;;1999.90;999.90;;;;;;;2.03;100.00;162939.59;5057181;28;20044;-67
2022/03/05 05:11:48;;;;;;;1999.90;999.90;;;;;;;1.97;100.00;162923.19;5043792;28;20036;-67
2022/03/05 05:14:14;;;;;;;1999.90;999.90;;;;;;;1.96;100.00;162919.09;5061030;28;20062;-67
2022/03/05 05:16:41;;;;;;;1999.90;999.90;;;;;;;2.47;100.00;163056.00;5053579;28;20318;-67
2022/03/05 05:19:27;;;;;;;1999.90;999.90;;;;;;;2.04;100.00;162942.38;5064669;28;20052;-67
2022/03/05 05:21:59;;;;;;;1999.90;999.90;;;;;;;2.11;100.00;162961.53;5059280;28;20085;-67
2022/03/05 05:24:29;;;;;;;1999.90;999.90;;;;;;;2.22;100.00;162990.28;5054405;28;20484;-68
2022/03/05 05:26:56;;;;;;;1999.90;999.90;;;;;;;2.22;100.00;162990.28;5055281;28;20287;-67
2022/03/05 05:29:23;;;;;;;1999.90;999.90;;;;;;;2.27;100.00;163002.59;5050462;28;20057;-67
2022/03/05 05:32:05;;;;;;;1999.90;999.90;;;;;;;2.24;100.00;162994.38;5058456;28;20382;-67
2022/03/05 05:34:32;;;;;;;1999.90;999.90;;;;;;;1.56;100.00;162813.66;5052476;28;20349;-67
2022/03/05 05:36:58;;;;;;;1999.90;999.90;;;;;;;1.85;100.00;162890.34;5056886;28;20049;-67
2022/03/05 05:39:25;;;;;;;1999.90;999.90;;;;;;;2.26;100.00;162999.84;5059863;28;20060;-67
2022/03/05 05:41:51;;;;;;;1999.90;999.90;;;;;;;2.15;100.00;162969.75;5059463;28;20041;-67
2022/03/05 05:44:18;;;;;;;1999.90;999.90;;;;;;;2.16;100.00;162972.47;5058055;28;20396;-67
2022/03/05 05:46:44;;;;;;;1999.90;999.90;;;;;;;2.03;100.00;162938.25;5061827;28;20049;-67
2022/03/05 05:49:15;;;;;;;1999.90;999.90;;;;;;;1.97;100.00;162923.19;5053831;28;20283;-67
2022/03/05 05:51:41;;;;;;;1999.90;999.90;;;;;;;2.30;100.00;163010.81;5062148;28;20345;-67
2022/03/05 05:54:08;;;;;;;1999.90;999.90;;;;;;;2.22;100.00;162988.88;5060411;28;20227;-67
2022/03/05 05:56:35;;;;;;;1999.90;999.90;;;;;;;2.41;100.00;163040.97;5056026;28;20045;-67
2022/03/05 05:59:04;;;;;;;1999.90;999.90;;;;;;;2.65;100.00;163103.97;5062722;28;20089;-68
2022/03/05 06:01:31;;;;;;;1999.90;999.90;;;;;;;2.34;100.00;163021.78;5064945;28;20045;-67
2022/03/05 06:03:58;;;;;;;1999.90;999.90;;;;;;;2.36;100.00;163025.88;5051325;28;20132;-67
2022/03/05 06:06:24;;;;;;;1999.90;999.90;;;;;;;2.35;100.00;163023.13;5059056;28;20131;-68
2022/03/05 06:08:51;;;;;;;1999.90;999.90;;;;;;;2.18;100.00;162977.97;5055293;28;20345;-67
2022/03/05 06:11:17;;;;;;;1999.90;999.90;;;;;;;2.24;100.00;162994.38;5055532;28;20080;-68
2022/03/05 06:13:44;;;;;;;1999.90;999.90;;;;;;;2.44;100.00;163047.78;5055880;28;20056;-68
2022/03/05 06:16:11;;;;;;;1999.90;999.90;;;;;;;2.69;100.00;163113.53;5058242;28;20059;-67
2022/03/05 06:18:38;;;;;;;1999.90;999.90;;;;;;;2.55;100.00;163076.56;5059143;28;20072;-67
2022/03/05 06:21:05;;;;;;;1999.90;999.90;;;;;;;2.85;100.00;163156.03;5063426;28;20052;-67
2022/03/05 06:23:32;;;;;;;1999.90;999.90;;;;;;;2.58;100.00;163084.78;5055056;28;20045;-67
2022/03/05 06:25:59;;;;;;;1999.90;999.90;;;;;;;2.67;100.00;163109.44;5059255;28;20057;-67
2022/03/05 06:28:25;;;;;;;1999.90;999.90;;;;;;;2.25;100.00;162998.50;5066088;28;20057;-69
2022/03/05 06:30:52;;;;;;;1999.90;999.90;;;;;;;2.45;100.00;163051.88;5069128;28;20040;-68
2022/03/05 06:33:19;;;;;;;1999.90;999.90;;;;;;;2.27;100.00;163003.97;5056862;28;20049;-68
2022/03/05 06:35:46;;;;;;;1999.90;999.90;;;;;;;2.20;100.00;162983.41;5052516;28;20053;-68
2022/03/05 06:38:12;;;;;;;1999.90;999.90;;;;;;;2.29;100.00;163008.06;5059912;28;20049;-68
2022/03/05 06:40:39;;;;;;;1999.90;999.90;;;;;;;1.75;100.00;162864.31;5061497;28;20107;-68
2022/03/05 06:43:05;;;;;;;1999.90;999.90;;;;;;;1.91;100.00;162906.78;5061849;28;20049;-68
2022/03/05 06:45:32;;;;;;;1999.90;999.90;;;;;;;2.09;100.00;162954.69;5065358;28;20456;-68
2022/03/05 06:47:58;;;;;;;1999.90;999.90;;;;;;;2.38;100.00;163032.75;5058311;28;20049;-68
2022/03/05 06:50:25;;;;;;;1999.90;999.90;;;;;;;2.52;100.00;163068.38;5063376;28;20117;-68
2022/03/05 06:52:52;;;;;;;1999.90;999.90;;;;;;;2.43;100.00;163046.41;5052560;28;20052;-68
2022/03/05 06:55:23;;;;;;;1999.90;999.90;;;;;;;2.42;100.00;163042.31;5061507;28;20056;-69
2022/03/05 06:57:51;;;;;;;1999.90;999.90;;;;;;;2.22;100.00;162990.28;5061595;28;20066;-68
2022/03/05 07:00:18;;;;;;;1999.90;999.90;;;;;;;1.99;100.00;162928.66;5065699;28;20533;-68
2022/03/05 07:02:45;;;;;;;1999.90;999.90;;;;;;;2.42;100.00;163043.66;5058943;28;20045;-69
2022/03/05 07:05:13;;;;;;;1999.90;999.90;;;;;;;1.95;100.00;162917.72;5065098;28;20083;-68
2022/03/05 07:07:39;;;;;;;1999.90;999.90;;;;;;;1.90;100.00;162904.00;5065600;28;20056;-68
2022/03/05 07:10:07;;;;;;;1999.90;999.90;;;;;;;1.92;100.00;162910.88;5063407;28;20048;-68
2022/03/05 07:12:34;;;;;;;1999.90;999.90;;;;;;;1.76;100.00;162868.41;5062910;28;20052;-68
2022/03/05 07:15:03;;;;;;;1999.90;999.90;;;;;;;1.68;100.00;162846.53;5061677;28;20045;-68
2022/03/05 07:17:30;;;;;;;1999.90;999.90;;;;;;;1.35;100.00;162758.91;5053839;28;20458;-68
2022/03/05 07:19:56;;;;;;;1999.90;999.90;;;;;;;1.46;100.00;162786.28;5058359;28;20097;-68
2022/03/05 07:22:23;;;;;;;1999.90;999.90;;;;;;;1.91;100.00;162906.78;5056317;28;20051;-68
2022/03/05 07:24:50;;;;;;;1999.90;999.90;;;;;;;1.62;100.00;162828.72;5060227;28;20075;-68
2022/03/05 07:27:17;;;;;;;1999.90;999.90;;;;;;;1.63;100.00;162832.81;5062468;28;20055;-68
2022/03/05 07:30:09;;;;;;;1999.90;999.90;;;;;;;1.86;100.00;162893.06;5057537;28;20052;-68
2022/03/05 07:32:36;;;;;;;1999.90;999.90;;;;;;;1.60;100.00;162824.63;5051824;28;20042;-68
2022/03/05 07:35:04;;;;;;;1999.90;999.90;;;;;;;1.71;100.00;162854.75;5057718;28;20060;-68
2022/03/05 07:37:31;;;;;;;1999.90;999.90;;;;;;;1.95;100.00;162917.72;5052014;28;20220;-68
2022/03/05 07:39:58;;;;;;;1999.90;999.90;;;;;;;2.19;100.00;162980.66;5060024;28;20292;-69
2022/03/05 07:42:25;;;;;;;1999.90;999.90;;;;;;;1.91;100.00;162908.13;5059858;28;20430;-69
2022/03/05 07:44:51;;;;;;;1999.90;999.90;;;;;;;2.10;100.00;162958.78;5062493;28;20045;-68
2022/03/05 07:47:18;;;;;;;1999.90;999.90;;;;;;;1.56;100.00;162815.06;5064033;28;20048;-69
2022/03/05 07:49:45;;;;;;;1999.90;999.90;;;;;;;1.66;100.00;162841.03;5061791;28;20044;-68
2022/03/05 07:52:12;;;;;;;1999.90;999.90;;;;;;;2.05;100.00;162945.06;5063174;28;20353;-68
2022/03/05 07:54:38;;;;;;;1999.90;999.90;;;;;;;2.16;100.00;162973.88;5055313;28;20438;-68
2022/03/05 07:57:05;;;;;;;1999.90;999.90;;;;;;;1.75;100.00;162865.66;5058593;28;20061;-68
2022/03/05 07:59:31;;;;;;;1999.90;999.90;;;;;;;2.18;100.00;162979.31;5068660;28;20056;-68
2022/03/05 08:01:58;;;;;;;1999.90;999.90;;;;;;;2.35;99.61;163024.50;5061529;28;20044;-68
2022/03/05 08:04:25;;;;;;;1999.90;999.90;;;;;;;2.47;98.93;163057.38;5056281;28;20079;-69
2022/03/05 08:07:12;;;;;;;1999.90;999.90;;;;;;;2.93;97.60;163177.91;5047929;28;20052;-69
2022/03/05 08:09:39;;;;;;;1999.90;999.90;;;;;;;2.86;98.23;163158.72;5061341;28;20049;-69
2022/03/05 08:12:07;;;;;;;1999.90;999.90;;;;;;;2.58;98.08;163086.16;5058736;28;20207;-68
2022/03/05 08:14:33;;;;;;;1999.90;999.90;;;;;;;2.49;97.71;163060.09;5066552;28;20072;-68
2022/03/05 08:17:00;;;;;;;1999.90;999.90;;;;;;;3.17;95.52;163243.72;5062437;28;20052;-69
2022/03/05 08:19:26;;;;;;;1999.90;999.90;;;;;;;2.22;97.52;162988.88;5051259;28;20052;-68
2022/03/05 08:22:13;;;;;;;1999.90;999.90;;;;;;;3.15;96.40;163238.19;5059979;28;20094;-69
2022/03/05 08:24:40;;;;;;;1999.90;999.90;;;;;;;3.33;94.47;163284.78;5058104;28;20051;-68
2022/03/05 08:27:07;;;;;;;1999.90;999.90;;;;;;;3.64;93.66;163367.03;5063456;28;20049;-70
2022/03/05 08:29:33;;;;;;;1999.90;999.90;;;;;;;3.70;93.11;163383.50;5066472;28;20055;-70
2022/03/05 08:32:00;;;;;;;1999.90;999.90;;;;;;;3.68;92.94;163379.38;5062852;28;20071;-70
2022/03/05 08:34:26;;;;;;;1999.90;999.90;;;;;;;3.66;92.57;163373.91;5063083;28;20078;-70
2022/03/05 08:36:53;;;;;;;1999.90;999.90;;;;;;;4.36;90.78;163558.97;5059742;28;20052;-68
2022/03/05 08:39:20;;;;;;;1999.90;999.90;;;;;;;4.69;89.26;163646.75;5064153;28;20048;-68
2022/03/05 08:41:47;;;;;;;1999.90;999.90;;;;;;;4.53;88.17;163604.28;5058236;28;20421;-68
2022/03/05 08:44:14;;;;;;;1999.90;999.90;;;;;;;3.44;90.62;163314.97;5058605;28;20445;-69
2022/03/05 08:46:40;;;;;;;1999.90;999.90;;;;;;;3.83;89.43;163419.13;5058540;28;20144;-68
2022/03/05 08:49:07;;;;;;;1999.90;999.90;;;;;;;4.20;89.27;163516.50;5061217;28;20053;-68
2022/03/05 08:51:33;;;;;;;1999.90;999.90;;;;;;;4.31;89.01;163546.66;5052815;28;20049;-68
2022/03/05 08:54:00;;;;;;;1999.90;999.90;;;;;;;4.62;87.43;163628.94;5061500;28;20049;-68
2022/03/05 08:56:27;;;;;;;1999.90;999.90;;;;;;;3.92;89.53;163441.09;5051510;28;20299;-69
2022/03/05 08:58:53;;;;;;;1999.90;999.90;;;;;;;3.17;89.50;163243.72;5054003;28;20298;-69
2022/03/05 09:01:20;;;;;;;1999.90;999.90;;;;;;;3.77;88.68;163402.69;5059909;28;20044;-68
2022/03/05 09:03:47;;;;;;;1999.90;999.90;;;;;;;4.11;87.84;163491.78;5054940;28;20437;-68
2022/03/05 09:06:13;;;;;;;1999.90;999.90;;;;;;;4.35;87.63;163557.63;5055632;28;20052;-69
2022/03/05 09:08:40;;;;;;;1999.90;999.90;;;;;;;4.76;85.18;163665.97;5055151;28;20573;-68
2022/03/05 09:11:06;;;;;;;1999.90;999.90;;;;;;;4.88;84.36;163698.94;5063220;28;20052;-68
2022/03/05 09:13:33;;;;;;;1999.90;999.90;;;;;;;4.21;86.42;163520.63;5062594;28;20053;-67
2022/03/05 09:16:00;;;;;;;1999.90;999.90;;;;;;;3.79;87.22;163408.16;5052598;28;20385;-68
2022/03/05 09:18:27;;;;;;;1999.90;999.90;;;;;;;3.41;86.06;163306.75;5055802;28;20075;-69
2022/03/05 09:20:54;;;;;;;1999.90;999.90;;;;;;;4.34;85.06;163553.53;5051402;28;20048;-69
2022/03/05 09:23:21;;;;;;;1999.90;999.90;;;;;;;3.49;85.79;163328.66;5057913;28;20049;-67
2022/03/05 09:25:47;;;;;;;1999.90;999.90;;;;;;;4.13;84.56;163497.31;5059031;28;20071;-68
2022/03/05 09:28:14;;;;;;;1999.90;999.90;;;;;;;3.43;84.79;163312.22;5057349;28;20054;-68
2022/03/05 09:30:40;;;;;;;1999.90;999.90;;;;;;;4.30;83.67;163542.53;5051433;28;20084;-69
2022/03/05 09:33:07;;;;;;;1999.90;999.90;;;;;;;3.68;81.60;163378.03;5059498;28;20048;-68
2022/03/05 09:35:34;;;;;;;1999.90;999.90;;;;;;;4.10;83.97;163490.44;5045461;28;20353;-69
2022/03/05 09:38:01;;;;;;;1999.90;999.90;;;;;;;4.55;82.29;163611.09;5053608;28;20052;-68
2022/03/05 09:40:28;;;;;;;1999.90;999.90;;;;;;;4.29;82.12;163539.78;5057181;28;20201;-69
2022/03/05 09:42:55;;;;;;;1999.90;999.90;;;;;;;4.73;82.84;163659.16;5062669;28;20052;-68
2022/03/05 09:45:22;;;;;;;1999.90;999.90;;;;;;;4.99;79.08;163726.31;5057975;28;20056;-68
2022/03/05 09:47:48;;;;;;;1999.90;999.90;;;;;;;4.54;76.56;163606.97;5059769;28;20060;-67
2022/03/05 09:50:15;;;;;;;1999.90;999.90;;;;;;;4.63;77.73;163631.72;5059754;28;20260;-67
2022/03/05 09:52:42;;;;;;;1999.90;999.90;;;;;;;2.96;75.72;163187.53;5050566;28;20036;-66
2022/03/05 09:55:09;;;;;;;1999.90;999.90;;;;;;;2.66;77.05;163106.69;5059247;28;20044;-66
2022/03/05 09:57:36;;;;;;;1999.90;999.90;;;;;;;4.02;75.17;163469.88;5061617;28;20079;-67
2022/03/05 10:00:04;;;;;;;1999.90;999.90;;;;;;;4.39;73.88;163567.22;5049018;28;20043;-67
2022/03/05 10:02:32;;;;;;;1999.90;999.90;;;;;;;4.18;73.42;163512.41;5057839;28;20048;-67
2022/03/05 10:05:26;;;;;;;1999.90;999.90;;;;;;;4.47;75.39;163589.19;5057562;28;20063;-66
2022/03/05 10:08:07;;;;;;;1999.90;999.90;;;;;;;4.96;73.92;163718.09;5062813;28;20049;-66
2022/03/05 10:10:46;;;;;;;1999.90;999.90;;;;;;;4.13;75.23;163498.66;5058544;28;20045;-67
2022/03/05 10:13:31;;;;;;;1999.90;999.90;;;;;;;4.01;73.33;163465.75;5065790;28;20052;-68
2022/03/05 10:16:00;;;;;;;1999.90;999.90;;;;;;;3.84;72.49;163420.50;5063053;28;20050;-68
2022/03/05 10:18:32;;;;;;;1999.90;999.90;;;;;;;4.25;69.95;163528.84;5060479;28;20429;-68
2022/03/05 10:21:00;;;;;;;1999.90;999.90;;;;;;;5.15;69.04;163770.28;5061837;28;20353;-69
2022/03/05 10:23:30;;;;;;;1999.90;999.90;;;;;;;4.58;71.37;163617.97;5061167;28;20049;-69
2022/03/05 10:25:57;;;;;;;1999.90;999.90;;;;;;;4.18;71.61;163512.41;5063039;28;20118;-69
2022/03/05 10:28:26;;;;;;;1999.90;999.90;;;;;;;4.54;70.37;163608.38;5068141;28;20055;-69
2022/03/05 10:30:55;;;;;;;1999.90;999.90;;;;;;;4.37;69.28;163563.09;5065353;28;20040;-68
2022/03/05 10:33:38;;;;;;;1999.90;999.90;;;;;;;4.39;71.36;163567.22;5063475;28;20072;-67
2022/03/05 10:36:08;;;;;;;1999.90;999.90;;;;;;;4.95;69.08;163716.75;5060553;28;20337;-68
2022/03/05 10:38:43;;;;;;;1999.90;999.90;;;;;;;4.92;68.49;163708.50;5045152;28;20060;-67
2022/03/05 10:41:10;;;;;;;1999.90;999.90;;;;;;;4.76;71.07;163667.38;5061870;28;20555;-67
2022/03/05 10:43:36;;;;;;;1999.90;999.90;;;;;;;4.96;70.96;163719.50;5060297;28;20110;-67
2022/03/05 10:46:03;;;;;;;1999.90;999.90;;;;;;;4.89;74.04;163701.63;5060390;28;20182;-66
2022/03/05 10:48:32;;;;;;;1999.90;999.90;;;;;;;4.05;67.89;163478.09;5065027;28;20209;-67
2022/03/05 10:51:11;;;;;;;1999.90;999.90;;;;;;;4.20;69.93;163517.84;5060322;28;20063;-67
2022/03/05 10:53:43;;;;;;;1999.90;999.90;;;;;;;4.52;69.50;163602.88;5053716;28;20330;-66